Frederick, OK (73542)

5:13 AM CDT on July 23, 2016 (GMT -0500)
Frederick Municipal | | Change Station

Elev 1253 ft 34.35 °N, 98.98 °W | Updated 20 minutes ago

Clear
Clear
75 °F
Feels Like 75 °F
N
8
Wind Variable Wind from South

Today
High -- | Low -- °F
--% Chance of Precip.
Yesterday
High -- | Low -- °F
Precip. -- in
Pressure 29.87 in
Visibility 10.0 miles
Clouds Clear
Dew Point 66 °F
Humidity 73%
Rainfall 0.00 in
Snow Depth Not available.
6:40 AM 8:44 PM
Waning Gibbous, 86% visible
METAR KFDR 230953Z AUTO 19007KT 10SM CLR 24/19 A2993 RMK AO2 SLP115 T02390189 TSNO
Pressure 29.87 in
Visibility 10.0 miles
Clouds Clear
Dew Point 66 °F
Humidity 73%
Rainfall 0.00 in
Snow Depth Not available.
6:40 AM 8:44 PM
Waning Gibbous, 86% visible
METAR KFDR 230953Z AUTO 19007KT 10SM CLR 24/19 A2993 RMK AO2 SLP115 T02390189 TSNO

10-Day Weather Forecast

Almanac

Astronomy

Jul. 23, 2016 Rise Set
Actual Time
Civil Twilight
Nautical Twilight
Astronomical Twilight
Moon
Length of Visible Light
Length of Day
Tomorrow will be .
, % of the Moon is Illuminated

Today's Extremes

State Highs State Lows

Community

WunderPhotos

Upload Photos

1,926,789 photos uploaded!

WunderBlog® & News

Nearby

Air Quality

  Air Quality AQ Index Pollutant
Not available.

Snow Depth

Station Depth Elevation

Earthquake Activity

City Distance Mag. Time & Date
Minimum magnitude displayed is 2.5.

Coastal Water Temperatures

Place Temperature

Stations

Nearby Weather Stations

Station Location Temp. Windchill Dew Point Humidity Wind Precip. Elev Updated Type
                   

Watches & Warnings

There are currently no watches in effect.